94th Latvian Open ChampionshipLong Course (50m)
Riga (LAT)19 - 21 Jun 2018
Men, 200m Backstroke, Final,  Open
Men, 200m Backstroke, Prelim,  Open
Men, 200m Backstroke, Final,  Open19 Jun 2018 - 17:22TimePts.
1.FELDBERGS, Girts1993LATBJSS Ridzene-ZIEP2:03.28748
2.KALNINS, Uvis1993LATValmieras BSS2:04.98718
3.MILIUS, Eimantas1996LTUKauno PM2:05.84703
4.KAPOCIUS, Erikas2000LTUIgnalinos KSC2:07.90670
5.BOLOTOV, Egor1997UZBUzbekistan2:08.95653
6.SLISANS, Davis2000LATSK Delfins2:10.88625
7.YUSUPBAEV, Adilbek2002UZBUzbekistan2:15.71560
8.MIKELSONS, Kristaps2004LATValmieras BSS2:16.73548
Men, 200m Backstroke, Prelim,  Open19 Jun 2018 - 10:56TimePts.
1.KALNINS, Uvis1993LATValmieras BSS2:04.45727
2.FELDBERGS, Girts1993LATBJSS Ridzene-ZIEP2:04.46727
3.MILIUS, Eimantas1996LTUKauno PM2:06.77688
4.KAPOCIUS, Erikas2000LTUIgnalinos KSC2:10.76627
5.BOLOTOV, Egor1997UZBUzbekistan2:11.24620
6.SLISANS, Davis2000LATSK Delfins2:11.34618
7.YUSUPBAEV, Adilbek2002UZBUzbekistan2:14.21579
8.MIKELSONS, Kristaps2004LATValmieras BSS2:16.92546
9.KARKLELIS, Dziugas2003LTUIgnalinos KSC2:17.76536
10.KETNERS, Karlis2000LATBJSS Ridzene-ZOL2:17.95534
11.NAUMOV, Kirill2002LATKipsalas peldbaseins2:21.04499
12.VEINBERGS, Toms2002LATBJSS Ridzene-ZIEP2:21.55494
13.GOLDBERGS, Marks2002LATValmieras BSS2:21.60493
14.ARE, Atis2000LATKokneses SC2:23.64473
15.ZVEJNIEKS, Haralds2003LATBJSS Ridzene-OSC2:24.24467
16.BUTANS, Alens2003LATJelgavas SPS2:25.46455
17.SNIEDZE, Janis Ricards2003LATBJSS Ridzene-DSN2:32.87392
18.DZIRKALIS, Janis2005LATPK Ogre2:36.35366
19.KUDRJAVCEVS, Dainis2004LATRezeknes BJSS2:37.92355
20.BRENCS, Kristians2006LATJelgavas SPS2:43.46320